sensor_id;sensor_type;location;lat;lon;timestamp;pressure;altitude;pressure_sealevel;temperature;humidity
22930;BME280;11630;42.660;23.292;2023-05-16T00:01:13;69122.33;;;14.43;100.00
22930;BME280;11630;42.660;23.292;2023-05-16T00:03:44;69133.27;;;14.48;100.00
22930;BME280;11630;42.660;23.292;2023-05-16T00:06:15;69131.08;;;14.46;100.00
22930;BME280;11630;42.660;23.292;2023-05-16T00:08:46;69134.63;;;14.51;100.00
22930;BME280;11630;42.660;23.292;2023-05-16T00:11:17;69121.52;;;14.36;100.00
22930;BME280;11630;42.660;23.292;2023-05-16T00:13:47;69102.13;;;14.25;100.00
22930;BME280;11630;42.660;23.292;2023-05-16T00:16:18;69115.52;;;14.33;100.00
22930;BME280;11630;42.660;23.292;2023-05-16T00:18:49;69122.06;;;14.42;100.00
22930;BME280;11630;42.660;23.292;2023-05-16T00:21:20;69128.89;;;14.44;100.00
22930;BME280;11630;42.660;23.292;2023-05-16T00:23:51;69140.63;;;14.59;100.00
22930;BME280;11630;42.660;23.292;2023-05-16T00:26:22;69134.07;;;14.48;100.00
22930;BME280;11630;42.660;23.292;2023-05-16T00:28:54;69130.52;;;14.43;100.00
22930;BME280;11630;42.660;23.292;2023-05-16T00:31:24;69141.73;;;14.50;100.00
22930;BME280;11630;42.660;23.292;2023-05-16T00:33:55;69138.16;;;14.58;100.00
22930;BME280;11630;42.660;23.292;2023-05-16T00:36:26;69142.80;;;14.58;100.00
22930;BME280;11630;42.660;23.292;2023-05-16T00:38:57;69148.26;;;14.60;100.00
22930;BME280;11630;42.660;23.292;2023-05-16T00:41:27;69144.73;;;14.59;100.00
22930;BME280;11630;42.660;23.292;2023-05-16T00:43:59;69150.72;;;14.69;100.00
22930;BME280;11630;42.660;23.292;2023-05-16T00:46:29;69134.34;;;14.54;100.00
22930;BME280;11630;42.660;23.292;2023-05-16T00:49:00;69130.79;;;14.52;100.00
22930;BME280;11630;42.660;23.292;2023-05-16T00:51:30;69125.88;;;14.48;100.00
22930;BME280;11630;42.660;23.292;2023-05-16T00:54:01;69130.80;;;14.47;100.00
22930;BME280;11630;42.660;23.292;2023-05-16T00:56:33;69131.06;;;14.49;100.00
22930;BME280;11630;42.660;23.292;2023-05-16T00:59:04;69130.80;;;14.47;100.00
22930;BME280;11630;42.660;23.292;2023-05-16T01:01:35;69138.99;;;14.50;100.00
22930;BME280;11630;42.660;23.292;2023-05-16T01:04:07;69130.52;;;14.53;100.00
22930;BME280;11630;42.660;23.292;2023-05-16T01:06:38;69138.99;;;14.50;100.00
22930;BME280;11630;42.660;23.292;2023-05-16T01:09:11;69142.81;;;14.53;100.00
22930;BME280;11630;42.660;23.292;2023-05-16T01:11:46;69132.16;;;14.50;100.00
22930;BME280;11630;42.660;23.292;2023-05-16T01:14:28;69136.53;;;14.51;100.00
22930;BME280;11630;42.660;23.292;2023-05-16T01:22:39;69124.25;;;14.46;100.00
22930;BME280;11630;42.660;23.292;2023-05-16T01:28:09;69124.26;;;14.41;100.00
22930;BME280;11630;42.660;23.292;2023-05-16T01:30:41;69135.17;;;14.46;100.00
22930;BME280;11630;42.660;23.292;2023-05-16T01:33:11;69150.73;;;14.57;100.00
22930;BME280;11630;42.660;23.292;2023-05-16T01:35:53;69139.81;;;14.52;100.00
22930;BME280;11630;42.660;23.292;2023-05-16T01:38:29;69134.34;;;14.54;100.00
22930;BME280;11630;42.660;23.292;2023-05-16T01:41:03;69136.00;;;14.48;100.00
22930;BME280;11630;42.660;23.292;2023-05-16T01:43:45;69139.79;;;14.61;100.00
22930;BME280;11630;42.660;23.292;2023-05-16T01:46:19;69117.97;;;14.39;100.00
22930;BME280;11630;42.660;23.292;2023-05-16T01:48:52;69143.09;;;14.52;100.00
22930;BME280;11630;42.660;23.292;2023-05-16T01:51:27;69135.97;;;14.58;100.00
22930;BME280;11630;42.660;23.292;2023-05-16T01:53:57;69140.61;;;14.63;100.00
22930;BME280;11630;42.660;23.292;2023-05-16T01:56:30;69130.25;;;14.47;100.00
22930;BME280;11630;42.660;23.292;2023-05-16T01:59:02;69123.42;;;14.42;100.00
22930;BME280;11630;42.660;23.292;2023-05-16T02:01:33;69127.25;;;14.43;100.00
22930;BME280;11630;42.660;23.292;2023-05-16T02:04:04;69117.13;;;14.42;100.00
22930;BME280;11630;42.660;23.292;2023-05-16T02:06:35;69120.42;;;14.45;100.00
22930;BME280;11630;42.660;23.292;2023-05-16T02:09:05;69139.54;;;14.55;100.00
22930;BME280;11630;42.660;23.292;2023-05-16T02:11:36;69142.53;;;14.59;100.00
22930;BME280;11630;42.660;23.292;2023-05-16T02:14:07;69142.00;;;14.56;100.00
22930;BME280;11630;42.660;23.292;2023-05-16T02:16:38;69136.79;;;14.60;100.00
22930;BME280;11630;42.660;23.292;2023-05-16T02:19:09;69138.16;;;14.53;100.00
22930;BME280;11630;42.660;23.292;2023-05-16T02:21:40;69136.79;;;14.53;100.00
22930;BME280;11630;42.660;23.292;2023-05-16T02:24:11;69146.09;;;14.61;100.00
22930;BME280;11630;42.660;23.292;2023-05-16T02:26:42;69137.61;;;14.62;100.00
22930;BME280;11630;42.660;23.292;2023-05-16T02:29:13;69145.53;;;14.58;100.00
22930;BME280;11630;42.660;23.292;2023-05-16T02:31:45;69098.06;;;14.17;100.00
22930;BME280;11630;42.660;23.292;2023-05-16T02:34:15;69100.50;;;14.26;100.00
22930;BME280;11630;42.660;23.292;2023-05-16T02:36:45;69081.38;;;14.01;100.00
22930;BME280;11630;42.660;23.292;2023-05-16T02:39:16;69081.38;;;14.08;100.00
22930;BME280;11630;42.660;23.292;2023-05-16T02:41:47;69097.23;;;14.18;100.00
22930;BME280;11630;42.660;23.292;2023-05-16T02:44:19;69096.13;;;14.19;100.00
22930;BME280;11630;42.660;23.292;2023-05-16T02:46:51;69101.33;;;14.25;100.00
22930;BME280;11630;42.660;23.292;2023-05-16T02:49:22;69108.13;;;14.35;100.00
22930;BME280;11630;42.660;23.292;2023-05-16T02:51:56;69125.63;;;14.41;100.00
22930;BME280;11630;42.660;23.292;2023-05-16T02:54:28;69115.52;;;14.33;100.00
22930;BME280;11630;42.660;23.292;2023-05-16T02:56:59;69124.24;;;14.39;100.00
22930;BME280;11630;42.660;23.292;2023-05-16T02:59:29;69127.79;;;14.43;100.00
22930;BME280;11630;42.660;23.292;2023-05-16T03:02:00;69110.33;;;14.25;100.00
22930;BME280;11630;42.660;23.292;2023-05-16T03:04:31;69111.97;;;14.31;100.00
22930;BME280;11630;42.660;23.292;2023-05-16T03:07:01;69122.88;;;14.46;100.00
22930;BME280;11630;42.660;23.292;2023-05-16T03:09:32;69128.89;;;14.44;100.00
22930;BME280;11630;42.660;23.292;2023-05-16T03:12:01;69113.33;;;14.34;100.00
22930;BME280;11630;42.660;23.292;2023-05-16T03:14:33;69108.42;;;14.27;100.00
22930;BME280;11630;42.660;23.292;2023-05-16T03:17:04;69114.16;;;14.36;100.00
22930;BME280;11630;42.660;23.292;2023-05-16T03:19:34;69121.52;;;14.36;100.00
22930;BME280;11630;42.660;23.292;2023-05-16T03:22:05;69127.25;;;14.43;100.00
22930;BME280;11630;42.660;23.292;2023-05-16T03:24:36;69108.96;;;14.25;100.00
22930;BME280;11630;42.660;23.292;2023-05-16T03:27:07;69102.42;;;14.26;100.00
22930;BME280;11630;42.660;23.292;2023-05-16T03:29:38;69099.42;;;14.17;100.00
22930;BME280;11630;42.660;23.292;2023-05-16T03:32:09;69097.49;;;14.19;100.00
22930;BME280;11630;42.660;23.292;2023-05-16T03:34:43;69086.32;;;14.10;100.00
22930;BME280;11630;42.660;23.292;2023-05-16T03:37:14;69087.68;;;14.13;100.00
22930;BME280;11630;42.660;23.292;2023-05-16T03:39:45;69098.05;;;14.20;100.00
22930;BME280;11630;42.660;23.292;2023-05-16T03:42:15;69110.33;;;14.27;100.00
22930;BME280;11630;42.660;23.292;2023-05-16T03:44:45;69109.77;;;14.32;100.00
22930;BME280;11630;42.660;23.292;2023-05-16T03:47:15;69119.60;;;14.41;100.00
22930;BME280;11630;42.660;23.292;2023-05-16T03:49:46;69149.63;;;14.60;100.00
22930;BME280;11630;42.660;23.292;2023-05-16T03:52:17;69127.79;;;14.43;100.00
22930;BME280;11630;42.660;23.292;2023-05-16T03:54:47;69137.08;;;14.47;100.00
22930;BME280;11630;42.660;23.292;2023-05-16T03:57:19;69124.78;;;14.47;100.00
22930;BME280;11630;42.660;23.292;2023-05-16T03:59:48;69128.06;;;14.42;100.00
22930;BME280;11630;42.660;23.292;2023-05-16T04:02:19;69132.44;;;14.49;100.00
22930;BME280;11630;42.660;23.292;2023-05-16T04:04:50;69131.61;;;14.49;100.00
22930;BME280;11630;42.660;23.292;2023-05-16T04:07:21;69148.83;;;14.56;100.00
22930;BME280;11630;42.660;23.292;2023-05-16T04:09:53;69137.06;;;14.49;100.00
22930;BME280;11630;42.660;23.292;2023-05-16T04:12:24;69117.42;;;14.36;100.00
22930;BME280;11630;42.660;23.292;2023-05-16T04:14:54;69101.05;;;14.21;100.00
22930;BME280;11630;42.660;23.292;2023-05-16T04:17:27;69102.13;;;14.27;100.00
22930;BME280;11630;42.660;23.292;2023-05-16T04:19:59;69103.78;;;14.26;100.00
22930;BME280;11630;42.660;23.292;2023-05-16T04:22:30;69108.97;;;14.32;100.00
22930;BME280;11630;42.660;23.292;2023-05-16T04:25:03;69111.42;;;14.33;100.00
22930;BME280;11630;42.660;23.292;2023-05-16T04:27:34;69107.59;;;14.27;100.00
22930;BME280;11630;42.660;23.292;2023-05-16T04:30:05;69107.59;;;14.27;100.00
22930;BME280;11630;42.660;23.292;2023-05-16T04:32:36;69098.86;;;14.19;100.00
22930;BME280;11630;42.660;23.292;2023-05-16T04:35:07;69110.06;;;14.33;100.00
22930;BME280;11630;42.660;23.292;2023-05-16T04:37:38;69093.41;;;14.14;100.00
22930;BME280;11630;42.660;23.292;2023-05-16T04:40:09;69107.88;;;14.26;100.00
22930;BME280;11630;42.660;23.292;2023-05-16T04:42:39;69121.23;;;14.42;100.00
22930;BME280;11630;42.660;23.292;2023-05-16T04:45:09;69134.34;;;14.54;100.00
22930;BME280;11630;42.660;23.292;2023-05-16T04:47:40;69127.27;;;14.40;100.00
22930;BME280;11630;42.660;23.292;2023-05-16T04:50:10;69144.16;;;14.58;100.00
22930;BME280;11630;42.660;23.292;2023-05-16T04:52:41;69142.53;;;14.59;100.00
22930;BME280;11630;42.660;23.292;2023-05-16T04:55:12;69145.82;;;14.60;100.00
22930;BME280;11630;42.660;23.292;2023-05-16T04:57:44;69161.63;;;14.76;100.00
22930;BME280;11630;42.660;23.292;2023-05-16T05:00:15;69173.94;;;14.81;100.00
22930;BME280;11630;42.660;23.292;2023-05-16T05:02:46;69153.73;;;14.68;100.00
22930;BME280;11630;42.660;23.292;2023-05-16T05:05:16;69158.63;;;14.67;100.00
22930;BME280;11630;42.660;23.292;2023-05-16T05:07:47;69157.56;;;14.66;100.00
22930;BME280;11630;42.660;23.292;2023-05-16T05:10:17;69140.34;;;14.55;100.00
22930;BME280;11630;42.660;23.292;2023-05-16T05:12:48;69152.89;;;14.68;100.00
22930;BME280;11630;42.660;23.292;2023-05-16T05:15:19;69141.44;;;14.63;100.00
22930;BME280;11630;42.660;23.292;2023-05-16T05:17:50;69161.91;;;14.75;100.00
22930;BME280;11630;42.660;23.292;2023-05-16T05:20:21;69158.63;;;14.67;100.00
22930;BME280;11630;42.660;23.292;2023-05-16T05:22:52;69153.45;;;14.61;100.00
22930;BME280;11630;42.660;23.292;2023-05-16T05:25:22;69150.17;;;14.66;100.00
22930;BME280;11630;42.660;23.292;2023-05-16T05:27:53;69165.73;;;14.74;100.00
22930;BME280;11630;42.660;23.292;2023-05-16T05:30:24;69174.21;;;14.80;100.00
22930;BME280;11630;42.660;23.292;2023-05-16T05:32:55;69175.02;;;14.87;100.00
22930;BME280;11630;42.660;23.292;2023-05-16T05:35:26;69176.93;;;14.93;100.00
22930;BME280;11630;42.660;23.292;2023-05-16T05:37:57;69179.66;;;14.88;100.00
22930;BME280;11630;42.660;23.292;2023-05-16T05:40:26;69200.95;;;15.12;100.00
22930;BME280;11630;42.660;23.292;2023-05-16T05:42:57;69231.31;;;15.31;100.00
22930;BME280;11630;42.660;23.292;2023-05-16T05:45:29;69225.55;;;15.35;100.00
22930;BME280;11630;42.660;23.292;2023-05-16T05:48:01;69224.75;;;15.28;100.00
22930;BME280;11630;42.660;23.292;2023-05-16T05:50:32;69227.45;;;15.38;100.00
22930;BME280;11630;42.660;23.292;2023-05-16T05:53:03;69236.74;;;15.48;100.00
22930;BME280;11630;42.660;23.292;2023-05-16T05:55:33;69237.57;;;15.43;100.00
22930;BME280;11630;42.660;23.292;2023-05-16T05:58:05;69255.32;;;15.60;100.00
22930;BME280;11630;42.660;23.292;2023-05-16T06:00:36;69256.97;;;15.57;100.00
22930;BME280;11630;42.660;23.292;2023-05-16T06:03:07;69271.47;;;15.69;100.00
22930;BME280;11630;42.660;23.292;2023-05-16T06:05:37;69260.52;;;15.66;100.00
22930;BME280;11630;42.660;23.292;2023-05-16T06:08:09;69265.70;;;15.72;100.00
22930;BME280;11630;42.660;23.292;2023-05-16T06:10:39;69273.64;;;15.71;100.00
22930;BME280;11630;42.660;23.292;2023-05-16T06:13:10;69264.34;;;15.72;100.00
22930;BME280;11630;42.660;23.292;2023-05-16T06:15:41;69287.31;;;15.81;100.00
22930;BME280;11630;42.660;23.292;2023-05-16T06:18:12;69277.99;;;15.82;100.00
22930;BME280;11630;42.660;23.292;2023-05-16T06:20:45;69283.47;;;15.87;100.00
22930;BME280;11630;42.660;23.292;2023-05-16T06:23:15;69296.03;;;16.01;100.00
22930;BME280;11630;42.660;23.292;2023-05-16T06:25:46;69295.48;;;16.03;100.00
22930;BME280;11630;42.660;23.292;2023-05-16T06:28:16;69314.09;;;16.05;100.00
22930;BME280;11630;42.660;23.292;2023-05-16T06:30:46;69311.89;;;16.11;100.00
22930;BME280;11630;42.660;23.292;2023-05-16T06:33:18;69302.61;;;16.02;100.00
22930;BME280;11630;42.660;23.292;2023-05-16T06:35:49;69299.84;;;16.07;100.00
22930;BME280;11630;42.660;23.292;2023-05-16T06:38:18;69305.88;;;16.05;100.00
22930;BME280;11630;42.660;23.292;2023-05-16T06:40:49;69316.83;;;16.05;100.00
22930;BME280;11630;42.660;23.292;2023-05-16T06:43:20;69312.44;;;16.09;100.00
22930;BME280;11630;42.660;23.292;2023-05-16T06:45:52;69313.53;;;16.15;100.00
22930;BME280;11630;42.660;23.292;2023-05-16T06:48:25;69322.55;;;16.19;100.00
22930;BME280;11630;42.660;23.292;2023-05-16T06:50:55;69309.44;;;16.07;100.00
22930;BME280;11630;42.660;23.292;2023-05-16T06:53:25;69309.14;;;16.13;100.00
22930;BME280;11630;42.660;23.292;2023-05-16T06:55:56;69317.89;;;16.21;100.00
22930;BME280;11630;42.660;23.292;2023-05-16T06:58:27;69345.84;;;16.29;100.00
22930;BME280;11630;42.660;23.292;2023-05-16T07:00:58;69341.15;;;16.38;100.00
22930;BME280;11630;42.660;23.292;2023-05-16T07:03:28;69339.50;;;16.39;100.00
22930;BME280;11630;42.660;23.292;2023-05-16T07:05:58;69350.16;;;16.48;100.00
22930;BME280;11630;42.660;23.292;2023-05-16T07:08:29;69371.82;;;16.54;100.00
22930;BME280;11630;42.660;23.292;2023-05-16T07:11:00;69360.58;;;16.55;100.00
22930;BME280;11630;42.660;23.292;2023-05-16T07:13:31;69360.86;;;16.51;100.00
22930;BME280;11630;42.660;23.292;2023-05-16T07:16:02;69364.11;;;16.59;100.00
22930;BME280;11630;42.660;23.292;2023-05-16T07:18:32;69370.16;;;16.60;100.00
22930;BME280;11630;42.660;23.292;2023-05-16T07:21:03;69358.91;;;16.56;100.00
22930;BME280;11630;42.660;23.292;2023-05-16T07:23:33;69377.83;;;16.62;100.00
22930;BME280;11630;42.660;23.292;2023-05-16T07:26:03;69378.11;;;16.61;100.00
22930;BME280;11630;42.660;23.292;2023-05-16T07:28:33;69386.83;;;16.76;100.00
22930;BME280;11630;42.660;23.292;2023-05-16T07:31:03;69385.46;;;16.74;100.00
22930;BME280;11630;42.660;23.292;2023-05-16T07:33:34;69381.59;;;16.78;100.00
22930;BME280;11630;42.660;23.292;2023-05-16T07:36:05;69367.38;;;16.70;100.00
22930;BME280;11630;42.660;23.292;2023-05-16T07:38:37;69381.90;;;16.72;100.00
22930;BME280;11630;42.660;23.292;2023-05-16T07:41:08;69386.01;;;16.77;100.00
22930;BME280;11630;42.660;23.292;2023-05-16T07:43:41;69396.40;;;16.86;100.00
22930;BME280;11630;42.660;23.292;2023-05-16T07:46:12;69403.23;;;16.91;100.00
22930;BME280;11630;42.660;23.292;2023-05-16T07:48:43;69406.23;;;16.93;100.00
22930;BME280;11630;42.660;23.292;2023-05-16T07:51:13;69412.55;;;16.94;100.00
22930;BME280;11630;42.660;23.292;2023-05-16T07:53:45;69407.63;;;16.88;100.00
22930;BME280;11630;42.660;23.292;2023-05-16T07:56:16;69415.02;;;16.95;100.00
22930;BME280;11630;42.660;23.292;2023-05-16T07:58:47;69398.84;;;16.92;100.00
22930;BME280;11630;42.660;23.292;2023-05-16T08:01:19;69411.42;;;17.03;100.00
22930;BME280;11630;42.660;23.292;2023-05-16T08:03:49;69425.39;;;17.07;100.00
22930;BME280;11630;42.660;23.292;2023-05-16T08:06:20;69422.92;;;17.11;100.00
22930;BME280;11630;42.660;23.292;2023-05-16T08:08:51;69436.86;;;17.25;100.00
22930;BME280;11630;42.660;23.292;2023-05-16T08:11:21;69460.77;;;17.28;100.00
22930;BME280;11630;42.660;23.292;2023-05-16T08:13:52;69449.20;;;17.35;100.00
22930;BME280;11630;42.660;23.292;2023-05-16T08:16:25;69453.02;;;17.41;100.00
22930;BME280;11630;42.660;23.292;2023-05-16T08:18:55;69474.66;;;17.52;100.00
22930;BME280;11630;42.660;23.292;2023-05-16T08:21:26;69468.09;;;17.49;100.00
22930;BME280;11630;42.660;23.292;2023-05-16T08:23:57;69480.95;;;17.64;100.00
22930;BME280;11630;42.660;23.292;2023-05-16T08:26:29;69473.01;;;17.58;100.00
22930;BME280;11630;42.660;23.292;2023-05-16T08:28:59;69478.22;;;17.62;100.00
22930;BME280;11630;42.660;23.292;2023-05-16T08:31:31;69475.17;;;17.63;100.00
22930;BME280;11630;42.660;23.292;2023-05-16T08:34:07;69486.14;;;17.70;100.00
22930;BME280;11630;42.660;23.292;2023-05-16T08:36:34;69491.88;;;17.74;100.00
22930;BME280;11630;42.660;23.292;2023-05-16T08:39:05;69507.23;;;17.83;100.00
22930;BME280;11630;42.660;23.292;2023-05-16T08:41:35;69489.13;;;17.74;100.00
22930;BME280;11630;42.660;23.292;2023-05-16T08:44:08;69510.77;;;17.90;100.00
22930;BME280;11630;42.660;23.292;2023-05-16T08:46:42;69523.38;;;17.99;100.00
22930;BME280;11630;42.660;23.292;2023-05-16T08:49:15;69539.78;;;18.24;100.00
22930;BME280;11630;42.660;23.292;2023-05-16T08:51:47;69562.56;;;18.33;100.00
22930;BME280;11630;42.660;23.292;2023-05-16T08:54:17;69592.73;;;18.51;100.00
22930;BME280;11630;42.660;23.292;2023-05-16T08:56:49;69613.25;;;18.75;100.00
22930;BME280;11630;42.660;23.292;2023-05-16T08:59:20;69605.55;;;18.73;100.00
22930;BME280;11630;42.660;23.292;2023-05-16T09:01:51;69653.54;;;19.11;100.00
22930;BME280;11630;42.660;23.292;2023-05-16T09:04:22;69627.69;;;19.02;100.00
22930;BME280;11630;42.660;23.292;2023-05-16T09:06:54;69640.34;;;19.04;100.00
22930;BME280;11630;42.660;23.292;2023-05-16T09:09:25;69651.34;;;19.06;100.00
22930;BME280;11630;42.660;23.292;2023-05-16T09:11:56;69651.30;;;19.19;100.00
22930;BME280;11630;42.660;23.292;2023-05-16T09:14:28;69668.31;;;19.32;100.00
22930;BME280;11630;42.660;23.292;2023-05-16T09:17:08;69685.66;;;19.31;100.00
22930;BME280;11630;42.660;23.292;2023-05-16T09:19:41;69664.75;;;19.27;100.00
22930;BME280;11630;42.660;23.292;2023-05-16T09:22:13;69677.95;;;19.29;100.00
22930;BME280;11630;42.660;23.292;2023-05-16T09:24:45;69667.18;;;19.35;100.00
22930;BME280;11630;42.660;23.292;2023-05-16T09:27:16;69655.92;;;19.32;100.00
22930;BME280;11630;42.660;23.292;2023-05-16T09:29:49;69678.44;;;19.39;100.00
22930;BME280;11630;42.660;23.292;2023-05-16T09:32:19;69663.08;;;19.28;100.00
22930;BME280;11630;42.660;23.292;2023-05-16T09:34:51;69666.67;;;19.28;100.00
22930;BME280;11630;42.660;23.292;2023-05-16T09:37:22;69679.84;;;19.37;100.00
22930;BME280;11630;42.660;23.292;2023-05-16T09:39:54;69666.39;;;19.29;100.00
22930;BME280;11630;42.660;23.292;2023-05-16T09:42:25;69663.34;;;19.32;100.00
22930;BME280;11630;42.660;23.292;2023-05-16T09:44:56;69705.09;;;19.55;100.00
22930;BME280;11630;42.660;23.292;2023-05-16T09:47:28;69694.11;;;19.50;100.00
22930;BME280;11630;42.660;23.292;2023-05-16T09:49:59;69676.78;;;19.40;100.00
22930;BME280;11630;42.660;23.292;2023-05-16T09:52:31;69678.20;;;19.35;100.00
22930;BME280;11630;42.660;23.292;2023-05-16T09:55:05;69675.98;;;19.36;100.00
22930;BME280;11630;42.660;23.292;2023-05-16T09:57:40;69659.24;;;19.25;100.00
22930;BME280;11630;42.660;23.292;2023-05-16T10:00:12;69661.42;;;19.29;100.00
22930;BME280;11630;42.660;23.292;2023-05-16T10:02:43;69685.84;;;19.50;100.00
22930;BME280;11630;42.660;23.292;2023-05-16T10:05:13;69693.52;;;19.52;100.00
22930;BME280;11630;42.660;23.292;2023-05-16T10:07:44;69683.66;;;19.45;100.00
22930;BME280;11630;42.660;23.292;2023-05-16T10:10:18;69682.56;;;19.44;100.00
22930;BME280;11630;42.660;23.292;2023-05-16T10:12:50;69678.98;;;19.42;100.00
22930;BME280;11630;42.660;23.292;2023-05-16T10:15:22;69687.28;;;19.37;100.00
22930;BME280;11630;42.660;23.292;2023-05-16T10:17:54;69674.02;;;19.45;100.00
22930;BME280;11630;42.660;23.292;2023-05-16T10:20:27;69692.42;;;19.51;100.00
22930;BME280;11630;42.660;23.292;2023-05-16T10:23:02;69702.86;;;19.58;100.00
22930;BME280;11630;42.660;23.292;2023-05-16T10:25:38;69682.85;;;19.41;100.00
22930;BME280;11630;42.660;23.292;2023-05-16T10:28:11;69686.36;;;19.53;100.00
22930;BME280;11630;42.660;23.292;2023-05-16T10:30:44;69711.63;;;19.66;100.00
22930;BME280;11630;42.660;23.292;2023-05-16T10:33:16;69686.91;;;19.51;100.00
22930;BME280;11630;42.660;23.292;2023-05-16T10:35:47;69702.02;;;19.61;100.00
22930;BME280;11630;42.660;23.292;2023-05-16T10:38:18;69689.95;;;19.52;100.00
22930;BME280;11630;42.660;23.292;2023-05-16T10:40:52;69707.49;;;19.66;100.00
22930;BME280;11630;42.660;23.292;2023-05-16T10:43:30;69704.53;;;19.57;100.00
22930;BME280;11630;42.660;23.292;2023-05-16T10:46:04;69717.69;;;19.69;100.00
22930;BME280;11630;42.660;23.292;2023-05-16T10:48:40;69754.19;;;20.01;100.00
22930;BME280;11630;42.660;23.292;2023-05-16T10:51:34;69738.44;;;20.03;100.00
22930;BME280;11630;42.660;23.292;2023-05-16T10:54:12;69744.77;;;20.05;100.00
22930;BME280;11630;42.660;23.292;2023-05-16T10:56:43;69779.09;;;20.29;100.00
22930;BME280;11630;42.660;23.292;2023-05-16T10:59:24;69785.08;;;20.42;100.00
22930;BME280;11630;42.660;23.292;2023-05-16T11:01:56;69801.30;;;20.53;100.00
22930;BME280;11630;42.660;23.292;2023-05-16T11:04:44;69805.70;;;20.55;100.00
22930;BME280;11630;42.660;23.292;2023-05-16T11:06:58;69811.80;;;20.50;100.00
22930;BME280;11630;42.660;23.292;2023-05-16T11:09:30;69805.77;;;20.42;100.00
22930;BME280;11630;42.660;23.292;2023-05-16T11:12:03;69762.66;;;20.09;100.00
22930;BME280;11630;42.660;23.292;2023-05-16T11:14:42;69761.78;;;20.17;100.00
22930;BME280;11630;42.660;23.292;2023-05-16T11:17:20;69738.76;;;19.97;100.00
22930;BME280;11630;42.660;23.292;2023-05-16T11:19:57;69730.19;;;20.00;100.00
22930;BME280;11630;42.660;23.292;2023-05-16T11:22:34;69748.91;;;20.05;100.00
22930;BME280;11630;42.660;23.292;2023-05-16T11:25:07;69776.66;;;20.21;100.00
22930;BME280;11630;42.660;23.292;2023-05-16T11:27:45;69782.72;;;20.24;100.00
22930;BME280;11630;42.660;23.292;2023-05-16T11:30:18;69770.34;;;20.19;100.00
22930;BME280;11630;42.660;23.292;2023-05-16T11:32:49;69769.19;;;20.25;100.00
22930;BME280;11630;42.660;23.292;2023-05-16T11:35:20;69765.70;;;20.11;100.00
22930;BME280;11630;42.660;23.292;2023-05-16T11:37:54;69758.51;;;20.14;100.00
22930;BME280;11630;42.660;23.292;2023-05-16T11:40:27;69786.00;;;20.29;100.00
22930;BME280;11630;42.660;23.292;2023-05-16T11:42:59;69783.45;;;20.38;100.00
22930;BME280;11630;42.660;23.292;2023-05-16T11:45:33;69792.53;;;20.40;100.00
22930;BME280;11630;42.660;23.292;2023-05-16T11:48:04;69793.36;;;20.42;100.00
22930;BME280;11630;42.660;23.292;2023-05-16T11:50:35;69784.08;;;20.26;100.00
22930;BME280;11630;42.660;23.292;2023-05-16T11:53:06;69799.34;;;20.55;100.00
22930;BME280;11630;42.660;23.292;2023-05-16T11:55:37;69789.78;;;20.40;100.00
22930;BME280;11630;42.660;23.292;2023-05-16T11:58:09;69794.98;;;20.46;100.00
22930;BME280;11630;42.660;23.292;2023-05-16T12:00:50;69831.30;;;20.64;100.00
22930;BME280;11630;42.660;23.292;2023-05-16T12:03:12;69839.70;;;20.90;100.00
22930;BME280;11630;42.660;23.292;2023-05-16T12:05:55;69871.03;;;21.11;100.00
22930;BME280;11630;42.660;23.292;2023-05-16T12:08:25;69859.50;;;21.01;100.00
22930;BME280;11630;42.660;23.292;2023-05-16T12:10:56;69886.70;;;21.22;100.00
22930;BME280;11630;42.660;23.292;2023-05-16T12:13:27;69882.27;;;21.23;100.00
22930;BME280;11630;42.660;23.292;2023-05-16T12:15:58;69889.42;;;21.29;100.00
22930;BME280;11630;42.660;23.292;2023-05-16T12:18:29;69902.93;;;21.33;100.00
22930;BME280;11630;42.660;23.292;2023-05-16T12:21:00;69935.59;;;21.66;100.00
22930;BME280;11630;42.660;23.292;2023-05-16T12:23:31;69958.13;;;21.84;100.00
22930;BME280;11630;42.660;23.292;2023-05-16T12:26:03;69972.70;;;21.96;100.00
22930;BME280;11630;42.660;23.292;2023-05-16T12:28:34;69961.89;;;21.97;100.00
22930;BME280;11630;42.660;23.292;2023-05-16T12:31:17;69958.82;;;22.01;100.00
22930;BME280;11630;42.660;23.292;2023-05-16T12:33:43;69951.47;;;21.88;100.00
22930;BME280;11630;42.660;23.292;2023-05-16T12:36:14;69952.28;;;21.87;100.00
22930;BME280;11630;42.660;23.292;2023-05-16T12:38:47;69928.66;;;21.68;100.00
22930;BME280;11630;42.660;23.292;2023-05-16T12:41:20;69936.79;;;21.55;100.00
22930;BME280;11630;42.660;23.292;2023-05-16T12:43:51;69897.42;;;21.28;100.00
22930;BME280;11630;42.660;23.292;2023-05-16T12:46:22;69881.15;;;21.27;100.00
22930;BME280;11630;42.660;23.292;2023-05-16T12:49:05;69894.10;;;21.30;100.00
22930;BME280;11630;42.660;23.292;2023-05-16T12:51:34;69884.47;;;21.25;100.00
22930;BME280;11630;42.660;23.292;2023-05-16T12:54:11;69871.83;;;21.16;100.00
22930;BME280;11630;42.660;23.292;2023-05-16T12:56:42;69882.88;;;21.16;100.00
22930;BME280;11630;42.660;23.292;2023-05-16T12:59:13;69849.00;;;21.01;100.00
22930;BME280;11630;42.660;23.292;2023-05-16T13:01:44;69859.25;;;20.99;100.00
22930;BME280;11630;42.660;23.292;2023-05-16T13:04:15;69850.48;;;20.89;100.00
22930;BME280;11630;42.660;23.292;2023-05-16T13:06:46;69860.63;;;20.99;100.00
22930;BME280;11630;42.660;23.292;2023-05-16T13:09:17;69837.86;;;20.75;100.00
22930;BME280;11630;42.660;23.292;2023-05-16T13:11:48;69807.86;;;20.62;100.00